Airfield :
LOGIN :

Register | Disclaimer

   EN    FR    IT 

 










Legend :    VFR   Marginal VFR   IFR   Intensive IFR   Very Intensive IFR
Visi :
Ceiling :
>= 8 km
>= 3000ft
5 to 8 km
1000 to 3000 ft
1500m to 5 km
500 to 1000 ft
800 to 1500m
200 to 500 ft
< 800m
< 200 ft
Symbols :   Thunderstorms  Fog  Heavy snow  Heavy precipitations  Wind > 20 kt
SIGMETs :     Misc.  Thunderstorms  Icing  Turbulence  Mountain Waves  Volcanic Ashes






- Airport Elevation : 359 ft
- IATA code : BVA


LFOB - Beauvais

CURRENT METAR :
  • 270800Z AUTO 22014KT 9999 BKN007 OVC043 01/01 Q0985 TEMPO 3000 RA BKN007 BKN020CB

EXPIRED METARs :
  • 270730Z AUTO 21012KT 9999 BKN006 BKN017 BKN030 01/01 Q0984 TEMPO 3000 RA BKN007 BKN020CB
  • 270700Z AUTO 22014KT 4600 -SN BR OVC006/// ///TCU 01/01 Q0984 TEMPO 1200 SN BKN007 BKN020CB
  • 270630Z AUTO 21014KT 9999 -RADZ OVC008 02/01 Q0984 TEMPO 1200 SN BKN007 BKN020CB
  • 270600Z AUTO 21013KT 9999 -RA OVC008 02/01 Q0984 TEMPO 1200 SNRA BKN007 BKN020CB BECMG 27012KT
  • 270530Z AUTO 21011KT 9999 BKN010 BKN025 OVC036 02/01 Q0985 TEMPO 1200 SNRA BKN007 BKN020CB BECMG 27012KT

TAF TAF LFOB
Valid from the 27 at 06:00 until the 28 at 06:00 UTC


270500Z 2706/2806 22012KT 9999 SCT010 OVC015
TEMPO 2706/2715 3000 RA BKN007 BKN020CB
PROB40 2706/2709 1200 SN OVC003
BECMG 2713/2715 02012KT
BECMG 2715/2718 31010KT OVC005
TEMPO 2718/2724 3000 RA OVC002
BECMG 2800/2803 BKN017
ATIS : +33 3 44 11 49 28



MET'MAP, your aeronautical weather chart ! - Copyright ORBIFLY December 2007 - Disclaimer

ORBIFLY MET'MAP TEAM :

Programming & Development : Alexandra Zaïnal
Concept & original design : Baudouin d'Aumeries
Assistance for programming : Marc-Olivier Méhu
Technical & hardware support : Manuel Goepfert

Contact : metmap@orbifly.com




SOURCES & CREDITS :

   NOAA